Time;durP1;ratioP1;P1;durP2;ratioP2;P2;SDS_P1;SDS_P2;PMS_P1;PMS_P2;Temp;Humidity;BMP_temperature;BMP_pressure;BME280_temperature;BME280_humidity;BME280_pressure;Samples;Min_cycle;Max_cycle;Signal;HPM_P1;HPM_P2
2021/06/08 00:00:09;;;;;;;10.82;8.50;;;;;;;;;;5056867;28;20124;-79
2021/06/08 00:02:39;;;;;;;12.23;8.73;;;;;;;;;;5062579;28;20040;-79
2021/06/08 00:05:05;;;;;;;12.93;8.70;;;;;;;;;;5060962;28;20041;-79
2021/06/08 00:07:30;;;;;;;12.98;8.05;;;;;;;;;;5061788;28;20086;-79
2021/06/08 00:09:55;;;;;;;13.48;7.25;;;;;;;;;;5061879;28;20037;-78
2021/06/08 00:12:21;;;;;;;10.00;7.78;;;;;;;;;;5060438;28;20076;-79
2021/06/08 00:14:46;;;;;;;8.40;7.30;;;;;;;;;;5060545;28;20064;-79
2021/06/08 00:17:12;;;;;;;9.77;7.57;;;;;;;;;;5054969;28;20403;-79
2021/06/08 00:19:38;;;;;;;9.80;7.55;;;;;;;;;;5057001;28;20135;-78
2021/06/08 00:22:03;;;;;;;12.27;7.47;;;;;;;;;;5042907;28;20035;-78
2021/06/08 00:24:29;;;;;;;8.57;6.68;;;;;;;;;;5046067;28;20034;-79
2021/06/08 00:26:54;;;;;;;8.88;6.78;;;;;;;;;;5040108;28;20112;-79
2021/06/08 00:29:20;;;;;;;14.57;7.40;;;;;;;;;;5068309;28;20032;-78
2021/06/08 00:31:45;;;;;;;12.75;7.43;;;;;;;;;;5067887;28;20043;-79
2021/06/08 00:34:10;;;;;;;9.32;7.50;;;;;;;;;;5060379;28;20044;-79
2021/06/08 00:36:36;;;;;;;11.68;7.85;;;;;;;;;;5060206;28;20123;-79
2021/06/08 00:39:03;;;;;;;10.20;7.75;;;;;;;;;;5060788;28;20098;-78
2021/06/08 00:41:37;;;;;;;9.10;7.70;;;;;;;;;;5060119;28;20032;-79
2021/06/08 00:44:07;;;;;;;9.30;7.75;;;;;;;;;;5059253;28;20049;-80
2021/06/08 00:46:32;;;;;;;11.88;7.75;;;;;;;;;;5058910;28;20048;-79
2021/06/08 00:53:49;;;;;;;9.57;7.22;;;;;;;;;;5055760;28;20087;-79
2021/06/08 01:12:50;;;;;;;8.98;7.18;;;;;;;;;;5034311;28;20051;-79
2021/06/08 01:16:33;;;;;;;13.80;7.55;;;;;;;;;;5054214;28;20532;-79
2021/06/08 01:20:24;;;;;;;10.88;6.43;;;;;;;;;;5014894;28;20065;-79
2021/06/08 01:22:52;;;;;;;9.10;6.63;;;;;;;;;;4991510;28;20050;-79
2021/06/08 01:25:19;;;;;;;11.30;6.75;;;;;;;;;;4976783;28;20602;-79
2021/06/08 01:27:45;;;;;;;10.93;6.97;;;;;;;;;;5019710;28;20052;-79
2021/06/08 01:30:11;;;;;;;10.50;7.65;;;;;;;;;;5040693;28;20556;-78
2021/06/08 01:32:40;;;;;;;7.93;6.53;;;;;;;;;;5040682;28;20044;-79
2021/06/08 01:35:06;;;;;;;7.22;6.38;;;;;;;;;;5033038;28;20107;-79
2021/06/08 01:37:32;;;;;;;10.65;6.78;;;;;;;;;;5038371;28;20038;-79
2021/06/08 01:39:58;;;;;;;8.98;7.20;;;;;;;;;;5035797;28;20048;-80
2021/06/08 01:42:24;;;;;;;9.18;6.95;;;;;;;;;;5032509;28;20048;-80
2021/06/08 01:45:52;;;;;;;6.88;5.95;;;;;;;;;;5022442;28;20041;-79
2021/06/08 02:01:33;;;;;;;9.57;7.15;;;;;;;;;;4985844;28;20081;-79
2021/06/08 02:12:04;;;;;;;7.47;6.57;;;;;;;;;;4996584;28;20050;-79
2021/06/08 02:14:46;;;;;;;8.85;6.10;;;;;;;;;;5009071;28;20057;-79
2021/06/08 02:17:23;;;;;;;12.13;6.72;;;;;;;;;;5007678;28;20123;-77
2021/06/08 02:19:51;;;;;;;10.95;7.20;;;;;;;;;;5023821;28;20052;-80
2021/06/08 02:22:22;;;;;;;8.60;6.65;;;;;;;;;;5036455;28;20061;-80
2021/06/08 02:24:58;;;;;;;9.80;6.22;;;;;;;;;;5020831;28;20096;-78
2021/06/08 02:27:27;;;;;;;7.93;6.53;;;;;;;;;;5018494;28;20042;-79
2021/06/08 02:29:54;;;;;;;14.18;8.25;;;;;;;;;;5000326;28;20037;-80
2021/06/08 02:32:21;;;;;;;12.98;7.95;;;;;;;;;;5017356;28;20045;-80
2021/06/08 02:34:47;;;;;;;11.48;7.25;;;;;;;;;;5007684;28;20044;-80
2021/06/08 02:37:14;;;;;;;10.18;7.15;;;;;;;;;;4994685;28;20038;-80
2021/06/08 02:39:41;;;;;;;11.93;6.88;;;;;;;;;;5028117;28;20179;-80
2021/06/08 02:42:12;;;;;;;9.93;7.32;;;;;;;;;;5036326;28;20484;-80
2021/06/08 02:44:38;;;;;;;10.00;6.85;;;;;;;;;;5059838;28;20041;-80
2021/06/08 02:47:05;;;;;;;9.25;5.40;;;;;;;;;;5059217;28;20036;-80
2021/06/08 02:49:31;;;;;;;9.07;6.55;;;;;;;;;;5055352;28;20029;-79
2021/06/08 02:51:58;;;;;;;8.90;5.53;;;;;;;;;;5042701;28;20056;-79
2021/06/08 02:54:25;;;;;;;12.25;7.00;;;;;;;;;;5053436;28;20033;-77
2021/06/08 02:56:51;;;;;;;12.95;7.50;;;;;;;;;;5043858;28;20072;-76
2021/06/08 02:59:17;;;;;;;7.75;6.68;;;;;;;;;;5053532;28;20041;-75
2021/06/08 03:01:47;;;;;;;9.65;6.93;;;;;;;;;;5053346;28;20467;-75
2021/06/08 03:04:17;;;;;;;9.98;7.50;;;;;;;;;;5047574;28;20068;-74
2021/06/08 03:06:55;;;;;;;16.95;7.15;;;;;;;;;;5043183;28;20029;-75
2021/06/08 03:09:31;;;;;;;11.57;7.57;;;;;;;;;;5053103;28;20037;-74
2021/06/08 03:12:00;;;;;;;15.05;7.32;;;;;;;;;;5053421;28;20037;-74
2021/06/08 03:14:27;;;;;;;15.98;7.70;;;;;;;;;;5051740;28;20040;-75
2021/06/08 03:16:58;;;;;;;16.20;8.48;;;;;;;;;;5051913;28;20041;-74
2021/06/08 03:19:28;;;;;;;11.48;7.25;;;;;;;;;;5053680;28;20138;-74
2021/06/08 03:21:57;;;;;;;10.88;6.47;;;;;;;;;;5048761;28;20541;-75
2021/06/08 03:24:27;;;;;;;11.48;6.78;;;;;;;;;;5041254;28;20108;-74
2021/06/08 03:26:53;;;;;;;10.23;6.93;;;;;;;;;;5032774;28;20037;-74
2021/06/08 03:29:20;;;;;;;10.98;7.93;;;;;;;;;;5032510;28;20083;-75
2021/06/08 03:31:47;;;;;;;12.05;7.60;;;;;;;;;;5034040;28;20076;-75
2021/06/08 03:34:16;;;;;;;15.95;8.60;;;;;;;;;;5046651;28;20431;-75
2021/06/08 03:36:45;;;;;;;13.00;7.70;;;;;;;;;;5039458;28;20048;-75
2021/06/08 03:39:12;;;;;;;14.00;8.32;;;;;;;;;;5044539;28;20099;-74
2021/06/08 03:41:38;;;;;;;12.52;7.88;;;;;;;;;;5057451;28;20037;-75
2021/06/08 03:44:06;;;;;;;12.20;8.40;;;;;;;;;;5057270;28;20372;-75
2021/06/08 03:46:34;;;;;;;9.10;8.02;;;;;;;;;;5056555;28;20467;-75
2021/06/08 03:48:59;;;;;;;11.40;8.50;;;;;;;;;;5048810;28;20041;-74
2021/06/08 03:51:27;;;;;;;12.40;8.43;;;;;;;;;;5042392;28;20037;-74
2021/06/08 03:53:53;;;;;;;15.80;8.80;;;;;;;;;;5037539;28;20499;-75
2021/06/08 03:56:18;;;;;;;11.68;8.85;;;;;;;;;;5048191;28;20071;-75
2021/06/08 03:58:44;;;;;;;8.77;7.60;;;;;;;;;;5037546;28;20376;-75
2021/06/08 04:01:10;;;;;;;13.73;8.43;;;;;;;;;;5050188;28;20061;-75
2021/06/08 04:03:36;;;;;;;15.23;8.88;;;;;;;;;;5038231;28;20042;-75
2021/06/08 04:06:03;;;;;;;10.98;8.02;;;;;;;;;;5048581;28;20036;-74
2021/06/08 04:08:29;;;;;;;16.75;9.48;;;;;;;;;;5058304;28;20048;-74
2021/06/08 04:10:55;;;;;;;13.82;8.88;;;;;;;;;;5059229;28;20091;-75
2021/06/08 04:13:21;;;;;;;13.38;9.20;;;;;;;;;;5058139;28;20036;-74
2021/06/08 04:15:48;;;;;;;9.10;7.85;;;;;;;;;;5057641;28;20040;-74
2021/06/08 04:18:14;;;;;;;9.63;7.55;;;;;;;;;;5056589;28;20054;-74
2021/06/08 04:20:40;;;;;;;10.57;8.25;;;;;;;;;;5055919;28;20127;-75
2021/06/08 04:23:06;;;;;;;12.75;8.05;;;;;;;;;;5055866;28;20037;-75
2021/06/08 04:25:32;;;;;;;9.73;8.20;;;;;;;;;;5049349;28;20151;-75
2021/06/08 04:27:57;;;;;;;10.27;7.85;;;;;;;;;;5044120;28;20073;-75
2021/06/08 04:30:23;;;;;;;11.68;8.93;;;;;;;;;;5048875;28;20445;-75
2021/06/08 04:32:49;;;;;;;20.73;11.07;;;;;;;;;;5055747;28;20076;-75
2021/06/08 04:35:16;;;;;;;14.75;10.20;;;;;;;;;;5051055;28;20073;-75
2021/06/08 04:37:42;;;;;;;11.93;8.68;;;;;;;;;;5044224;28;20407;-75
2021/06/08 04:40:10;;;;;;;12.85;9.80;;;;;;;;;;5040215;28;20041;-75
2021/06/08 04:42:41;;;;;;;15.27;9.48;;;;;;;;;;5044988;28;20040;-74
2021/06/08 04:45:07;;;;;;;9.55;8.10;;;;;;;;;;5046320;28;20040;-75
2021/06/08 04:47:47;;;;;;;11.93;7.80;;;;;;;;;;5042480;28;20049;-75
2021/06/08 04:50:14;;;;;;;14.55;7.95;;;;;;;;;;5057269;28;20048;-74
2021/06/08 04:52:40;;;;;;;11.15;8.00;;;;;;;;;;5041003;28;20409;-74
2021/06/08 04:55:07;;;;;;;11.95;8.60;;;;;;;;;;5050863;28;20041;-74
2021/06/08 04:57:33;;;;;;;13.05;8.57;;;;;;;;;;5047593;28;20048;-74
2021/06/08 05:00:32;;;;;;;9.32;6.82;;;;;;;;;;5050910;28;20090;-74
2021/06/08 05:03:06;;;;;;;10.73;7.47;;;;;;;;;;5046158;28;20503;-75
2021/06/08 05:05:33;;;;;;;10.88;7.07;;;;;;;;;;5047851;28;20036;-75
2021/06/08 05:08:26;;;;;;;12.95;8.00;;;;;;;;;;5038961;28;20482;-74
2021/06/08 05:11:00;;;;;;;11.20;8.48;;;;;;;;;;5047321;28;20390;-75
2021/06/08 05:13:26;;;;;;;10.00;8.50;;;;;;;;;;5053994;28;20399;-74
2021/06/08 05:15:54;;;;;;;17.20;9.02;;;;;;;;;;5055529;28;20415;-75
2021/06/08 05:18:20;;;;;;;12.93;8.90;;;;;;;;;;5045486;28;20050;-75
2021/06/08 05:20:46;;;;;;;16.20;9.25;;;;;;;;;;5042449;28;20067;-75
2021/06/08 05:23:14;;;;;;;14.45;9.52;;;;;;;;;;5043346;28;20049;-75
2021/06/08 05:25:42;;;;;;;14.50;9.57;;;;;;;;;;5039393;28;20136;-75
2021/06/08 05:28:08;;;;;;;12.43;7.93;;;;;;;;;;5046395;28;20072;-74
2021/06/08 05:30:35;;;;;;;14.77;9.40;;;;;;;;;;5035419;28;20041;-75
2021/06/08 05:33:00;;;;;;;9.88;7.70;;;;;;;;;;5034479;28;20491;-75
2021/06/08 05:35:29;;;;;;;10.40;7.78;;;;;;;;;;5034251;28;20088;-74
2021/06/08 05:38:05;;;;;;;17.55;8.85;;;;;;;;;;5044519;28;20057;-75
2021/06/08 05:40:30;;;;;;;;;;;;;;;;;;5052405;28;20114;-75
2021/06/08 05:42:55;;;;;;;11.77;8.33;;;;;;;;;;5043272;28;19952;-75
2021/06/08 05:45:21;;;;;;;14.75;9.73;;;;;;;;;;5035060;28;20040;-74
2021/06/08 05:47:46;;;;;;;11.95;9.90;;;;;;;;;;5035109;28;20555;-75
2021/06/08 05:50:12;;;;;;;12.43;9.07;;;;;;;;;;5034926;28;20045;-75
2021/06/08 05:52:38;;;;;;;15.13;9.80;;;;;;;;;;5034318;28;20076;-74
2021/06/08 05:55:05;;;;;;;11.07;9.02;;;;;;;;;;5033033;28;20088;-75
2021/06/08 05:57:32;;;;;;;16.60;10.68;;;;;;;;;;5035507;28;20040;-74
2021/06/08 05:59:58;;;;;;;15.77;9.60;;;;;;;;;;5054020;28;20119;-74
2021/06/08 06:02:24;;;;;;;15.82;10.10;;;;;;;;;;5053769;28;20047;-73
2021/06/08 06:04:49;;;;;;;12.05;8.98;;;;;;;;;;5053910;28;20028;-74
2021/06/08 06:07:16;;;;;;;15.07;10.75;;;;;;;;;;5053823;28;20110;-74
2021/06/08 06:09:42;;;;;;;14.48;10.60;;;;;;;;;;5054074;28;20068;-74
2021/06/08 06:12:08;;;;;;;19.98;11.70;;;;;;;;;;5054005;28;20446;-74
2021/06/08 06:14:36;;;;;;;11.77;8.70;;;;;;;;;;5053445;28;20471;-74
2021/06/08 06:17:02;;;;;;;13.30;9.70;;;;;;;;;;5052364;28;20037;-76
2021/06/08 06:19:28;;;;;;;15.98;10.85;;;;;;;;;;5053581;28;20037;-73
2021/06/08 06:21:57;;;;;;;14.75;12.32;;;;;;;;;;5053914;28;20371;-73
2021/06/08 06:24:23;;;;;;;15.52;11.48;;;;;;;;;;5053749;28;20029;-73
2021/06/08 06:26:49;;;;;;;17.30;11.65;;;;;;;;;;5053578;28;20040;-73
2021/06/08 06:29:15;;;;;;;15.70;12.07;;;;;;;;;;5053423;28;20040;-73
2021/06/08 06:31:45;;;;;;;16.60;10.27;;;;;;;;;;5052619;28;20033;-73
2021/06/08 06:34:12;;;;;;;15.27;11.55;;;;;;;;;;5053196;28;20116;-75
2021/06/08 06:36:38;;;;;;;10.65;8.88;;;;;;;;;;5053512;28;20449;-73
2021/06/08 06:39:16;;;;;;;14.55;7.90;;;;;;;;;;5053395;28;20029;-73
2021/06/08 06:41:44;;;;;;;11.20;7.47;;;;;;;;;;5053252;28;20120;-73
2021/06/08 06:44:12;;;;;;;17.80;8.00;;;;;;;;;;5052130;28;20487;-73
2021/06/08 06:46:38;;;;;;;10.20;7.55;;;;;;;;;;5053931;28;20036;-79
2021/06/08 06:49:05;;;;;;;18.45;8.98;;;;;;;;;;5053662;28;20044;-77
2021/06/08 06:51:31;;;;;;;11.00;7.72;;;;;;;;;;5050853;28;20079;-75
2021/06/08 06:53:57;;;;;;;12.30;7.20;;;;;;;;;;5051349;28;20045;-75
2021/06/08 06:56:23;;;;;;;9.68;7.15;;;;;;;;;;5051822;28;20033;-76
2021/06/08 06:58:50;;;;;;;12.98;7.72;;;;;;;;;;5052958;28;20463;-76
2021/06/08 07:01:19;;;;;;;10.20;7.80;;;;;;;;;;5051036;28;20036;-76
2021/06/08 07:03:46;;;;;;;14.60;7.70;;;;;;;;;;5051407;28;20474;-76
2021/06/08 07:06:14;;;;;;;10.38;7.78;;;;;;;;;;5051222;28;20115;-77
2021/06/08 07:08:41;;;;;;;11.05;8.70;;;;;;;;;;5051349;28;20059;-75
2021/06/08 07:11:06;;;;;;;12.13;8.77;;;;;;;;;;5065308;28;20036;-76
2021/06/08 07:13:32;;;;;;;10.43;8.30;;;;;;;;;;5072143;28;20382;-76
2021/06/08 07:15:58;;;;;;;14.48;9.38;;;;;;;;;;5072020;28;20036;-77
2021/06/08 07:18:24;;;;;;;9.18;7.70;;;;;;;;;;5072420;28;20401;-75
2021/06/08 07:20:50;;;;;;;9.70;6.93;;;;;;;;;;5072585;28;20039;-76
2021/06/08 07:23:20;;;;;;;9.27;7.03;;;;;;;;;;5072582;28;20111;-76
2021/06/08 07:25:46;;;;;;;13.63;8.38;;;;;;;;;;5072488;28;20117;-76
2021/06/08 07:28:11;;;;;;;10.93;8.35;;;;;;;;;;5068074;28;20075;-75
2021/06/08 07:30:39;;;;;;;10.50;7.78;;;;;;;;;;5053474;28;20068;-74
2021/06/08 07:33:12;;;;;;;9.75;6.35;;;;;;;;;;5052854;28;20083;-75
2021/06/08 07:35:54;;;;;;;10.05;6.50;;;;;;;;;;5052876;28;20560;-76
2021/06/08 07:38:29;;;;;;;9.88;6.57;;;;;;;;;;5051384;28;20033;-74
2021/06/08 07:41:00;;;;;;;11.15;7.30;;;;;;;;;;5052227;28;20041;-75
2021/06/08 07:43:35;;;;;;;7.85;6.53;;;;;;;;;;5052632;28;20048;-75
2021/06/08 07:46:06;;;;;;;10.40;6.97;;;;;;;;;;5052532;28;20451;-75
2021/06/08 07:48:32;;;;;;;18.15;7.88;;;;;;;;;;5051863;28;20036;-75
2021/06/08 07:51:02;;;;;;;12.77;7.65;;;;;;;;;;5050717;28;20120;-75
2021/06/08 07:53:31;;;;;;;10.38;7.07;;;;;;;;;;5052107;28;20032;-75
2021/06/08 07:55:57;;;;;;;9.85;6.50;;;;;;;;;;5052263;28;20051;-74
2021/06/08 07:58:25;;;;;;;9.73;6.25;;;;;;;;;;5052634;28;20044;-75
2021/06/08 08:00:52;;;;;;;8.43;7.18;;;;;;;;;;5052010;28;20036;-74
2021/06/08 08:03:26;;;;;;;7.07;5.68;;;;;;;;;;5050662;28;20071;-74
2021/06/08 08:05:53;;;;;;;8.15;6.35;;;;;;;;;;5051564;28;20040;-74
2021/06/08 08:08:20;;;;;;;9.88;6.95;;;;;;;;;;5051273;28;20036;-74
2021/06/08 08:10:47;;;;;;;8.43;5.93;;;;;;;;;;5052554;28;20068;-74
2021/06/08 08:13:15;;;;;;;8.38;6.68;;;;;;;;;;5050109;28;20478;-75
2021/06/08 08:15:45;;;;;;;7.25;5.50;;;;;;;;;;5052215;28;20041;-75
2021/06/08 08:18:11;;;;;;;8.55;5.72;;;;;;;;;;5051740;28;20471;-75
2021/06/08 08:20:53;;;;;;;9.50;6.57;;;;;;;;;;5052628;28;20059;-75
2021/06/08 08:23:20;;;;;;;8.85;5.80;;;;;;;;;;5053251;28;20041;-74
2021/06/08 08:25:47;;;;;;;8.35;6.57;;;;;;;;;;5055985;28;20131;-75
2021/06/08 08:28:14;;;;;;;8.35;6.13;;;;;;;;;;5055818;28;20041;-75
2021/06/08 08:30:40;;;;;;;10.98;6.85;;;;;;;;;;5052425;28;20441;-75
2021/06/08 08:33:06;;;;;;;9.35;6.63;;;;;;;;;;5054376;28;20037;-76
2021/06/08 08:35:33;;;;;;;9.05;7.10;;;;;;;;;;5055364;28;20040;-75
2021/06/08 08:37:59;;;;;;;15.20;6.15;;;;;;;;;;5055670;28;20033;-75
2021/06/08 08:40:25;;;;;;;10.30;5.15;;;;;;;;;;5055685;28;20376;-76
2021/06/08 08:42:51;;;;;;;9.77;5.15;;;;;;;;;;5054039;28;20479;-75
2021/06/08 08:45:16;;;;;;;7.15;5.25;;;;;;;;;;5054907;28;20032;-75
2021/06/08 08:47:45;;;;;;;8.05;5.43;;;;;;;;;;5055403;28;20060;-74
2021/06/08 08:50:17;;;;;;;7.10;4.80;;;;;;;;;;5055504;28;20037;-75
2021/06/08 08:52:45;;;;;;;5.13;4.43;;;;;;;;;;5054506;28;20029;-75
2021/06/08 08:55:11;;;;;;;4.68;4.15;;;;;;;;;;5055330;28;20482;-76
2021/06/08 08:57:39;;;;;;;6.65;4.53;;;;;;;;;;5053991;28;20130;-76
2021/06/08 09:00:06;;;;;;;6.68;5.03;;;;;;;;;;5055345;28;20035;-76
2021/06/08 09:02:32;;;;;;;6.43;4.10;;;;;;;;;;5055266;28;20037;-75
2021/06/08 09:04:59;;;;;;;6.75;4.53;;;;;;;;;;5053948;28;20121;-76
2021/06/08 09:07:25;;;;;;;7.85;4.35;;;;;;;;;;5055222;28;20044;-75
2021/06/08 09:09:51;;;;;;;10.00;4.72;;;;;;;;;;5054877;28;20037;-75
2021/06/08 09:12:16;;;;;;;7.85;4.97;;;;;;;;;;5055441;28;20169;-75
2021/06/08 09:14:42;;;;;;;11.23;4.97;;;;;;;;;;5054724;28;20037;-76
2021/06/08 09:17:08;;;;;;;5.38;3.75;;;;;;;;;;5054929;28;20036;-77
2021/06/08 09:19:35;;;;;;;6.45;3.83;;;;;;;;;;5055141;28;20033;-76
2021/06/08 09:22:01;;;;;;;5.10;3.63;;;;;;;;;;5054762;28;20101;-76
2021/06/08 09:24:28;;;;;;;4.80;3.67;;;;;;;;;;5054056;28;20040;-76
2021/06/08 09:27:07;;;;;;;6.13;3.80;;;;;;;;;;5054575;28;20483;-77
2021/06/08 09:29:35;;;;;;;4.60;3.67;;;;;;;;;;5054448;28;20037;-77
2021/06/08 09:32:16;;;;;;;7.03;3.78;;;;;;;;;;5052316;28;20039;-76
2021/06/08 09:34:46;;;;;;;6.40;3.75;;;;;;;;;;5054082;28;20082;-76
2021/06/08 09:37:12;;;;;;;8.27;3.75;;;;;;;;;;5053111;28;20087;-76
2021/06/08 09:39:45;;;;;;;6.40;3.83;;;;;;;;;;5054384;28;20410;-77
2021/06/08 09:42:36;;;;;;;8.48;3.85;;;;;;;;;;5054231;28;20029;-76
2021/06/08 09:45:18;;;;;;;11.10;4.45;;;;;;;;;;5052998;28;20045;-76
2021/06/08 09:47:44;;;;;;;5.18;3.80;;;;;;;;;;5035682;28;20071;-77
2021/06/08 09:50:32;;;;;;;6.68;3.33;;;;;;;;;;5054268;28;20383;-76
2021/06/08 09:53:17;;;;;;;6.63;3.90;;;;;;;;;;5054380;28;20040;-76
2021/06/08 09:55:53;;;;;;;6.70;3.75;;;;;;;;;;5054059;28;20075;-76
2021/06/08 09:58:19;;;;;;;4.78;3.65;;;;;;;;;;5051653;28;20039;-77
2021/06/08 10:01:11;;;;;;;5.28;3.90;;;;;;;;;;5054189;28;20029;-76
2021/06/08 10:03:44;;;;;;;5.32;3.78;;;;;;;;;;5054198;28;20387;-76
2021/06/08 10:06:12;;;;;;;4.45;3.67;;;;;;;;;;5054027;28;20033;-76
2021/06/08 10:08:48;;;;;;;5.90;3.30;;;;;;;;;;5053934;28;20036;-76
2021/06/08 10:11:15;;;;;;;5.38;2.80;;;;;;;;;;5054063;28;20467;-76
2021/06/08 10:13:41;;;;;;;12.30;4.20;;;;;;;;;;5053763;28;20043;-76
2021/06/08 10:16:12;;;;;;;27.08;7.60;;;;;;;;;;5053846;28;20025;-76
2021/06/08 10:18:46;;;;;;;9.05;4.43;;;;;;;;;;5053417;28;20037;-76
2021/06/08 10:21:12;;;;;;;60.15;14.25;;;;;;;;;;5053724;28;20044;-76
2021/06/08 10:23:38;;;;;;;22.33;8.52;;;;;;;;;;5052330;28;20040;-76
2021/06/08 10:26:09;;;;;;;10.63;5.00;;;;;;;;;;5053782;28;20037;-76
2021/06/08 10:28:35;;;;;;;8.07;4.30;;;;;;;;;;5051742;28;20056;-76
2021/06/08 10:31:01;;;;;;;6.45;3.90;;;;;;;;;;5052932;28;20464;-76
2021/06/08 10:33:27;;;;;;;4.28;3.88;;;;;;;;;;5053471;28;20037;-76
2021/06/08 10:35:54;;;;;;;11.50;3.90;;;;;;;;;;5053316;28;20086;-77
2021/06/08 10:38:20;;;;;;;35.53;9.63;;;;;;;;;;5053497;28;20033;-76
2021/06/08 10:40:52;;;;;;;7.40;4.38;;;;;;;;;;5053519;28;20029;-76
2021/06/08 10:43:29;;;;;;;9.55;5.50;;;;;;;;;;5053188;28;20041;-76
2021/06/08 10:45:56;;;;;;;8.00;3.70;;;;;;;;;;5051493;28;20091;-76
2021/06/08 10:48:33;;;;;;;5.30;3.67;;;;;;;;;;5052981;28;20060;-77
2021/06/08 10:51:29;;;;;;;5.60;4.38;;;;;;;;;;5053364;28;20103;-77
2021/06/08 10:53:57;;;;;;;7.63;4.15;;;;;;;;;;5031653;28;20057;-76
2021/06/08 10:56:22;;;;;;;7.65;4.60;;;;;;;;;;5033167;28;20112;-75
2021/06/08 10:58:54;;;;;;;10.32;5.70;;;;;;;;;;5033116;28;20649;-76
2021/06/08 11:01:34;;;;;;;5.72;3.80;;;;;;;;;;5044417;28;20479;-76
2021/06/08 11:04:07;;;;;;;6.68;3.80;;;;;;;;;;5033494;28;20057;-75
2021/06/08 11:06:57;;;;;;;6.80;4.30;;;;;;;;;;5033242;28;20464;-75
2021/06/08 11:09:22;;;;;;;5.10;4.10;;;;;;;;;;5033187;28;20056;-75
2021/06/08 11:11:56;;;;;;;8.63;4.35;;;;;;;;;;5032147;28;20038;-75
2021/06/08 11:14:36;;;;;;;11.70;5.00;;;;;;;;;;5033584;28;20061;-76
2021/06/08 11:17:11;;;;;;;7.32;4.93;;;;;;;;;;5033101;28;20037;-76
2021/06/08 11:19:48;;;;;;;7.75;4.97;;;;;;;;;;5033477;28;20090;-76
2021/06/08 11:22:16;;;;;;;7.18;4.70;;;;;;;;;;5032845;28;20048;-76
2021/06/08 11:24:49;;;;;;;5.88;3.83;;;;;;;;;;5032741;28;20090;-75
2021/06/08 11:27:15;;;;;;;4.78;3.83;;;;;;;;;;5031674;28;20037;-75
2021/06/08 11:29:55;;;;;;;9.05;4.30;;;;;;;;;;5046270;28;20056;-75
2021/06/08 11:32:30;;;;;;;5.43;4.07;;;;;;;;;;5051589;28;20086;-75
2021/06/08 11:35:11;;;;;;;6.15;4.43;;;;;;;;;;5051615;28;20048;-75
2021/06/08 11:37:58;;;;;;;7.28;4.50;;;;;;;;;;5052771;28;20037;-75
2021/06/08 11:40:37;;;;;;;11.20;5.13;;;;;;;;;;5052723;28;20142;-76
2021/06/08 11:43:23;;;;;;;8.85;5.25;;;;;;;;;;5052689;28;20080;-76
2021/06/08 11:46:03;;;;;;;6.90;4.65;;;;;;;;;;5052296;28;20037;-76
2021/06/08 11:48:35;;;;;;;6.55;4.32;;;;;;;;;;5052295;28;20071;-76
2021/06/08 11:51:03;;;;;;;9.77;4.90;;;;;;;;;;5052678;28;20163;-76
2021/06/08 11:53:29;;;;;;;7.43;4.53;;;;;;;;;;5052727;28;20040;-76
2021/06/08 11:56:12;;;;;;;6.75;5.00;;;;;;;;;;5052776;28;20044;-75
2021/06/08 11:58:39;;;;;;;5.57;4.35;;;;;;;;;;5056201;28;20033;-76
2021/06/08 12:01:06;;;;;;;6.68;4.93;;;;;;;;;;5056096;28;20086;-76
2021/06/08 12:03:34;;;;;;;6.50;4.40;;;;;;;;;;5056038;28;20037;-75
2021/06/08 12:06:01;;;;;;;8.48;5.07;;;;;;;;;;5056478;28;20017;-75
2021/06/08 12:08:32;;;;;;;6.63;4.90;;;;;;;;;;5056261;28;20033;-75
2021/06/08 12:11:13;;;;;;;8.38;5.20;;;;;;;;;;5054538;28;20033;-77
2021/06/08 12:13:41;;;;;;;7.10;5.05;;;;;;;;;;5041079;28;20029;-75
2021/06/08 12:16:11;;;;;;;7.15;5.70;;;;;;;;;;5034772;28;20068;-75
2021/06/08 12:18:37;;;;;;;6.97;4.93;;;;;;;;;;5045399;28;20087;-74
2021/06/08 12:21:09;;;;;;;7.07;4.88;;;;;;;;;;5045396;28;20033;-74
2021/06/08 12:23:37;;;;;;;12.48;5.07;;;;;;;;;;5045573;28;20040;-75
2021/06/08 12:26:22;;;;;;;6.97;4.95;;;;;;;;;;5046341;28;20383;-76
2021/06/08 12:29:05;;;;;;;7.07;5.10;;;;;;;;;;5042080;28;20056;-75
2021/06/08 12:31:31;;;;;;;7.32;4.88;;;;;;;;;;5035934;28;20041;-76
2021/06/08 12:33:58;;;;;;;8.40;5.30;;;;;;;;;;5035864;28;20407;-74
2021/06/08 12:36:23;;;;;;;8.43;4.32;;;;;;;;;;5041420;28;20060;-74
2021/06/08 12:38:51;;;;;;;9.48;5.53;;;;;;;;;;5054324;28;20513;-76
2021/06/08 12:41:18;;;;;;;6.75;4.88;;;;;;;;;;5055826;28;20458;-74
2021/06/08 12:43:50;;;;;;;8.13;4.65;;;;;;;;;;5055441;28;20111;-77
2021/06/08 12:46:33;;;;;;;5.85;4.50;;;;;;;;;;5053964;28;20471;-75
2021/06/08 12:49:04;;;;;;;5.88;4.75;;;;;;;;;;5054690;28;20514;-74
2021/06/08 12:51:41;;;;;;;7.60;5.07;;;;;;;;;;5055346;28;20029;-75
2021/06/08 12:54:08;;;;;;;6.30;4.85;;;;;;;;;;5056050;28;20125;-74
2021/06/08 12:56:34;;;;;;;6.45;5.20;;;;;;;;;;5055948;28;20040;-78
2021/06/08 12:59:00;;;;;;;6.53;4.30;;;;;;;;;;5057689;28;20037;-79
2021/06/08 13:01:27;;;;;;;6.13;4.20;;;;;;;;;;5059141;28;20055;-78
2021/06/08 13:03:53;;;;;;;8.75;5.88;;;;;;;;;;5056025;28;20032;-77
2021/06/08 13:06:23;;;;;;;5.18;4.32;;;;;;;;;;5056090;28;20494;-77
2021/06/08 13:08:50;;;;;;;7.93;4.45;;;;;;;;;;5055737;28;20386;-78
2021/06/08 13:11:17;;;;;;;6.47;4.70;;;;;;;;;;5056377;28;20043;-76
2021/06/08 13:13:42;;;;;;;6.18;4.80;;;;;;;;;;5041734;28;20116;-79
2021/06/08 13:16:08;;;;;;;6.93;4.93;;;;;;;;;;5047537;28;20125;-77
2021/06/08 13:18:41;;;;;;;6.28;3.92;;;;;;;;;;5051898;28;20405;-75
2021/06/08 13:21:06;;;;;;;7.45;4.35;;;;;;;;;;5056626;28;20041;-78
2021/06/08 13:23:33;;;;;;;6.47;4.70;;;;;;;;;;5055262;28;20098;-77
2021/06/08 13:26:11;;;;;;;5.45;4.00;;;;;;;;;;5056911;28;20078;-75
2021/06/08 13:28:42;;;;;;;7.55;4.65;;;;;;;;;;5050828;28;20036;-78
2021/06/08 13:31:10;;;;;;;7.78;4.18;;;;;;;;;;5055692;28;20041;-77
2021/06/08 13:33:38;;;;;;;4.25;3.85;;;;;;;;;;5055771;28;20150;-79
2021/06/08 13:36:08;;;;;;;6.20;3.88;;;;;;;;;;5057511;28;20064;-78
2021/06/08 13:38:35;;;;;;;5.38;3.72;;;;;;;;;;5055477;28;20048;-77
2021/06/08 13:41:00;;;;;;;5.50;3.67;;;;;;;;;;5056173;28;20066;-78
2021/06/08 13:43:26;;;;;;;7.22;4.40;;;;;;;;;;5056668;28;20402;-78
2021/06/08 13:45:54;;;;;;;7.00;3.72;;;;;;;;;;5040572;28;20507;-78
2021/06/08 13:48:33;;;;;;;5.50;3.72;;;;;;;;;;5053529;28;20047;-80
2021/06/08 13:51:20;;;;;;;9.07;4.70;;;;;;;;;;5056994;28;20033;-79
2021/06/08 13:54:05;;;;;;;7.22;3.47;;;;;;;;;;5057417;28;20036;-80
2021/06/08 13:56:43;;;;;;;4.33;3.53;;;;;;;;;;5056818;28;20037;-78
2021/06/08 14:01:56;;;;;;;4.93;3.45;;;;;;;;;;5054006;28;20106;-76
2021/06/08 14:04:24;;;;;;;6.00;3.95;;;;;;;;;;5057719;28;20051;-76
2021/06/08 14:06:54;;;;;;;6.03;3.60;;;;;;;;;;5051105;28;20032;-75
2021/06/08 14:09:22;;;;;;;5.85;3.38;;;;;;;;;;5054373;28;20047;-75
2021/06/08 14:11:55;;;;;;;6.13;3.88;;;;;;;;;;5053220;28;20052;-75
2021/06/08 14:14:30;;;;;;;7.18;3.72;;;;;;;;;;5036051;28;20104;-75
2021/06/08 14:17:06;;;;;;;4.57;3.17;;;;;;;;;;5053176;28;20040;-75
2021/06/08 14:19:31;;;;;;;12.18;3.38;;;;;;;;;;5054216;28;20041;-75
2021/06/08 14:21:57;;;;;;;7.65;3.53;;;;;;;;;;5053304;28;20051;-75
2021/06/08 14:24:22;;;;;;;7.57;3.67;;;;;;;;;;5053050;28;20040;-75
2021/06/08 14:26:48;;;;;;;6.10;3.42;;;;;;;;;;5036536;28;20036;-75
2021/06/08 14:29:13;;;;;;;4.20;3.30;;;;;;;;;;5052889;28;20482;-76
2021/06/08 14:31:39;;;;;;;7.85;3.75;;;;;;;;;;5057813;28;20044;-78
2021/06/08 14:34:05;;;;;;;6.75;3.85;;;;;;;;;;5045179;28;20040;-75
2021/06/08 14:36:31;;;;;;;7.75;3.42;;;;;;;;;;5048733;28;20041;-75
2021/06/08 14:38:59;;;;;;;5.10;3.70;;;;;;;;;;5054395;28;20412;-75
2021/06/08 14:41:25;;;;;;;8.90;4.53;;;;;;;;;;5053314;28;20048;-75
2021/06/08 14:43:51;;;;;;;9.73;4.28;;;;;;;;;;5054181;28;20053;-75
2021/06/08 14:46:16;;;;;;;6.10;4.40;;;;;;;;;;5053961;28;20541;-75
2021/06/08 14:48:42;;;;;;;7.07;3.90;;;;;;;;;;5054130;28;20427;-75
2021/06/08 14:51:07;;;;;;;6.93;4.15;;;;;;;;;;5054085;28;20040;-76
2021/06/08 14:53:34;;;;;;;4.38;3.88;;;;;;;;;;5052782;28;20037;-76
2021/06/08 14:56:00;;;;;;;5.78;3.75;;;;;;;;;;5053364;28;20113;-75
2021/06/08 14:58:26;;;;;;;4.82;3.63;;;;;;;;;;5052625;28;20029;-76
2021/06/08 15:00:51;;;;;;;8.43;4.00;;;;;;;;;;5052668;28;20036;-76
2021/06/08 15:03:17;;;;;;;5.95;3.60;;;;;;;;;;5053894;28;20040;-75
2021/06/08 15:05:42;;;;;;;5.07;3.72;;;;;;;;;;5054100;28;20112;-75
2021/06/08 15:08:08;;;;;;;5.38;3.83;;;;;;;;;;5035325;28;20043;-75
2021/06/08 15:10:35;;;;;;;5.55;3.80;;;;;;;;;;5052265;28;20036;-75
2021/06/08 15:13:01;;;;;;;6.65;3.70;;;;;;;;;;5053313;28;20033;-75
2021/06/08 15:15:26;;;;;;;3.83;3.30;;;;;;;;;;5053890;28;20380;-75
2021/06/08 15:17:52;;;;;;;5.07;3.78;;;;;;;;;;5053613;28;20094;-76
2021/06/08 15:20:18;;;;;;;6.18;3.63;;;;;;;;;;5053450;28;20040;-77
2021/06/08 15:22:43;;;;;;;5.25;4.28;;;;;;;;;;5053687;28;20037;-74
2021/06/08 15:25:09;;;;;;;6.32;3.60;;;;;;;;;;5052575;28;20529;-75
2021/06/08 15:27:36;;;;;;;5.57;3.83;;;;;;;;;;5052605;28;20029;-76
2021/06/08 15:30:05;;;;;;;7.85;4.22;;;;;;;;;;5051147;28;20037;-76
2021/06/08 15:32:31;;;;;;;5.43;4.20;;;;;;;;;;5053979;28;20037;-75
2021/06/08 15:34:56;;;;;;;4.85;4.18;;;;;;;;;;5055305;28;20052;-76
2021/06/08 15:37:22;;;;;;;5.20;4.07;;;;;;;;;;5055635;28;20025;-76